createdAt,value
2023-03-26T12:15:22.283Z,14.31
2023-03-26T12:17:53.618Z,14.50
2023-03-26T12:20:29.405Z,14.53
2023-03-26T12:22:59.493Z,14.44
2023-03-26T12:25:35.366Z,14.14
2023-03-26T12:28:04.910Z,13.97
2023-03-26T12:30:34.566Z,14.00
2023-03-26T12:33:09.682Z,14.34
2023-03-26T12:35:36.358Z,14.64
2023-03-26T12:38:23.408Z,14.61
2023-03-26T12:41:04.273Z,14.31
2023-03-26T12:44:56.160Z,13.98
2023-03-26T12:47:59.725Z,13.79
2023-03-26T12:49:20.118Z,13.55
2023-03-26T12:51:56.773Z,13.43
2023-03-26T12:54:38.131Z,13.30
2023-03-26T12:57:13.389Z,13.14
2023-03-26T12:59:47.320Z,13.05
2023-03-26T13:02:32.506Z,12.99
2023-03-26T13:05:40.363Z,12.88
2023-03-26T13:08:24.892Z,12.80
2023-03-26T13:11:30.297Z,12.74
2023-03-26T13:14:22.434Z,12.84
2023-03-26T13:17:22.495Z,13.23
2023-03-26T13:20:01.845Z,13.66
2023-03-26T13:22:48.850Z,13.97
2023-03-26T13:25:21.359Z,14.01
2023-03-26T13:28:01.394Z,14.00
2023-03-26T13:30:32.378Z,14.01
2023-03-26T13:33:20.356Z,13.86
2023-03-26T13:35:49.793Z,13.74
2023-03-26T13:38:20.316Z,13.69
2023-03-26T13:41:12.333Z,13.67
2023-03-26T13:43:58.445Z,13.62
2023-03-26T13:46:36.000Z,13.52
2023-03-26T13:49:13.662Z,13.49
2023-03-26T13:51:59.420Z,13.53
2023-03-26T13:54:44.803Z,13.58
2023-03-26T13:57:24.920Z,13.55
2023-03-26T14:00:12.746Z,13.50
2023-03-26T14:02:42.223Z,13.51
2023-03-26T14:05:34.233Z,13.64
2023-03-26T14:08:44.843Z,13.64
2023-03-26T14:11:32.768Z,13.53
2023-03-26T14:14:17.467Z,13.43
2023-03-26T14:17:12.343Z,13.37
2023-03-26T14:20:07.390Z,13.36
2023-03-26T14:22:46.330Z,13.38
2023-03-26T14:25:27.726Z,13.27
2023-03-26T14:28:24.332Z,13.01
2023-03-26T14:31:15.008Z,12.81
2023-03-26T14:33:41.971Z,12.65
2023-03-26T14:36:17.656Z,12.51
2023-03-26T14:39:14.401Z,12.36
2023-03-26T14:41:48.849Z,12.22
2023-03-26T14:44:30.720Z,12.09
2023-03-26T14:47:18.628Z,11.96
2023-03-26T14:50:04.127Z,11.87
2023-03-26T14:53:01.067Z,11.76
2023-03-26T14:55:37.130Z,11.64
2023-03-26T14:58:28.549Z,11.48
2023-03-26T15:01:17.358Z,11.38
2023-03-26T15:04:02.299Z,11.19
2023-03-26T15:06:32.014Z,11.02
2023-03-26T15:09:23.539Z,10.92
2023-03-26T15:12:12.685Z,10.80
2023-03-26T15:15:12.254Z,10.68
2023-03-26T15:17:55.621Z,10.57
2023-03-26T15:21:13.152Z,10.48
2023-03-26T15:24:06.281Z,10.39
2023-03-26T15:26:37.957Z,10.32
2023-03-26T15:29:23.984Z,10.24
2023-03-26T15:32:02.516Z,10.14
2023-03-26T15:34:48.695Z,10.03
2023-03-26T15:37:48.299Z,9.97
2023-03-26T15:40:26.041Z,9.92
2023-03-26T15:43:14.939Z,9.88
2023-03-26T15:45:53.930Z,9.85
2023-03-26T15:48:34.535Z,9.82
2023-03-26T15:51:28.772Z,9.80
2023-03-26T15:54:25.151Z,9.80
2023-03-26T15:56:54.758Z,9.75
2023-03-26T15:59:59.321Z,9.72
2023-03-26T16:02:53.773Z,9.70
2023-03-26T16:05:56.388Z,9.74
2023-03-26T16:08:25.942Z,9.74
2023-03-26T16:10:57.345Z,9.73
2023-03-26T16:14:10.430Z,9.71
2023-03-26T16:16:58.671Z,9.61
2023-03-26T16:19:37.079Z,9.54
2023-03-26T16:22:07.579Z,9.50
2023-03-26T16:24:40.125Z,9.44
2023-03-26T16:27:26.789Z,9.47
2023-03-26T16:30:13.719Z,9.45
2023-03-26T16:32:56.203Z,9.44
2023-03-26T16:35:35.766Z,9.48
2023-03-26T16:38:10.607Z,9.43
2023-03-26T16:41:00.099Z,9.40
2023-03-26T16:43:55.676Z,9.44
2023-03-26T16:46:28.596Z,9.47
